sensor_id;sensor_type;location;lat;lon;timestamp;temperature;humidity
15638;DHT22;26604;53.596;10.042;2022-12-19T00:00:43;19.20;99.90
15638;DHT22;26604;53.596;10.042;2022-12-19T00:03:10;19.10;99.90
15638;DHT22;26604;53.596;10.042;2022-12-19T00:05:37;19.10;99.90
15638;DHT22;26604;53.596;10.042;2022-12-19T00:08:04;19.10;99.90
15638;DHT22;26604;53.596;10.042;2022-12-19T00:10:33;19.10;99.90
15638;DHT22;26604;53.596;10.042;2022-12-19T00:13:00;19.10;99.90
15638;DHT22;26604;53.596;10.042;2022-12-19T00:15:27;19.10;99.90
15638;DHT22;26604;53.596;10.042;2022-12-19T00:17:53;19.10;99.90
15638;DHT22;26604;53.596;10.042;2022-12-19T00:20:20;19.10;99.90
15638;DHT22;26604;53.596;10.042;2022-12-19T00:22:47;19.10;99.90
15638;DHT22;26604;53.596;10.042;2022-12-19T00:25:14;19.10;99.90
15638;DHT22;26604;53.596;10.042;2022-12-19T00:27:42;19.10;99.90
15638;DHT22;26604;53.596;10.042;2022-12-19T00:30:10;19.10;99.90
15638;DHT22;26604;53.596;10.042;2022-12-19T00:32:37;19.10;99.90
15638;DHT22;26604;53.596;10.042;2022-12-19T00:35:05;19.10;99.90
15638;DHT22;26604;53.596;10.042;2022-12-19T00:37:32;19.00;99.90
15638;DHT22;26604;53.596;10.042;2022-12-19T00:39:59;19.00;99.90
15638;DHT22;26604;53.596;10.042;2022-12-19T00:42:27;19.00;99.90
15638;DHT22;26604;53.596;10.042;2022-12-19T00:44:55;19.00;99.90
15638;DHT22;26604;53.596;10.042;2022-12-19T00:47:22;19.00;99.90
15638;DHT22;26604;53.596;10.042;2022-12-19T00:49:49;19.00;99.90
15638;DHT22;26604;53.596;10.042;2022-12-19T00:52:16;19.00;99.90
15638;DHT22;26604;53.596;10.042;2022-12-19T00:54:43;19.00;99.90
15638;DHT22;26604;53.596;10.042;2022-12-19T00:57:10;19.00;99.90
15638;DHT22;26604;53.596;10.042;2022-12-19T00:59:36;19.00;99.90
15638;DHT22;26604;53.596;10.042;2022-12-19T01:02:05;18.90;99.90
15638;DHT22;26604;53.596;10.042;2022-12-19T01:04:32;19.00;99.90
15638;DHT22;26604;53.596;10.042;2022-12-19T01:06:58;19.00;99.90
15638;DHT22;26604;53.596;10.042;2022-12-19T01:09:25;18.90;99.90
15638;DHT22;26604;53.596;10.042;2022-12-19T01:11:52;18.90;99.90
15638;DHT22;26604;53.596;10.042;2022-12-19T01:14:36;19.00;99.90
15638;DHT22;26604;53.596;10.042;2022-12-19T01:17:05;18.90;99.90
15638;DHT22;26604;53.596;10.042;2022-12-19T01:19:31;18.90;99.90
15638;DHT22;26604;53.596;10.042;2022-12-19T01:21:58;18.90;99.90
15638;DHT22;26604;53.596;10.042;2022-12-19T01:24:25;18.90;99.90
15638;DHT22;26604;53.596;10.042;2022-12-19T01:26:52;18.90;99.90
15638;DHT22;26604;53.596;10.042;2022-12-19T01:29:19;18.90;99.90
15638;DHT22;26604;53.596;10.042;2022-12-19T01:31:46;18.90;99.90
15638;DHT22;26604;53.596;10.042;2022-12-19T01:34:14;18.90;99.90
15638;DHT22;26604;53.596;10.042;2022-12-19T01:36:41;19.10;99.90
15638;DHT22;26604;53.596;10.042;2022-12-19T01:39:07;19.20;99.90
15638;DHT22;26604;53.596;10.042;2022-12-19T01:41:35;19.40;99.90
15638;DHT22;26604;53.596;10.042;2022-12-19T01:44:04;19.50;99.90
15638;DHT22;26604;53.596;10.042;2022-12-19T01:46:34;19.70;99.90
15638;DHT22;26604;53.596;10.042;2022-12-19T01:49:02;19.80;99.90
15638;DHT22;26604;53.596;10.042;2022-12-19T01:51:36;19.90;99.90
15638;DHT22;26604;53.596;10.042;2022-12-19T01:54:06;19.90;99.90
15638;DHT22;26604;53.596;10.042;2022-12-19T01:56:39;20.00;99.90
15638;DHT22;26604;53.596;10.042;2022-12-19T01:59:10;20.00;99.90
15638;DHT22;26604;53.596;10.042;2022-12-19T02:01:40;20.00;99.90
15638;DHT22;26604;53.596;10.042;2022-12-19T02:04:07;20.00;99.90
15638;DHT22;26604;53.596;10.042;2022-12-19T02:09:04;20.00;99.90
15638;DHT22;26604;53.596;10.042;2022-12-19T02:11:31;19.90;99.90
15638;DHT22;26604;53.596;10.042;2022-12-19T02:13:58;19.90;99.90
15638;DHT22;26604;53.596;10.042;2022-12-19T02:16:32;19.90;99.90
15638;DHT22;26604;53.596;10.042;2022-12-19T02:19:15;19.90;99.90
15638;DHT22;26604;53.596;10.042;2022-12-19T02:21:57;19.80;99.90
15638;DHT22;26604;53.596;10.042;2022-12-19T02:30:14;19.70;99.90
15638;DHT22;26604;53.596;10.042;2022-12-19T02:32:58;19.70;99.90
15638;DHT22;26604;53.596;10.042;2022-12-19T02:35:30;19.60;99.90
15638;DHT22;26604;53.596;10.042;2022-12-19T02:38:07;19.60;99.90
15638;DHT22;26604;53.596;10.042;2022-12-19T02:40:40;19.60;99.90
15638;DHT22;26604;53.596;10.042;2022-12-19T02:43:09;19.50;99.90
15638;DHT22;26604;53.596;10.042;2022-12-19T02:45:38;19.50;99.90
15638;DHT22;26604;53.596;10.042;2022-12-19T02:48:08;19.40;99.90
15638;DHT22;26604;53.596;10.042;2022-12-19T02:50:40;19.40;99.90
15638;DHT22;26604;53.596;10.042;2022-12-19T02:53:09;19.40;99.90
15638;DHT22;26604;53.596;10.042;2022-12-19T02:55:41;19.40;99.90
15638;DHT22;26604;53.596;10.042;2022-12-19T02:58:26;19.30;99.90
15638;DHT22;26604;53.596;10.042;2022-12-19T03:01:11;19.30;99.90
15638;DHT22;26604;53.596;10.042;2022-12-19T03:03:46;19.30;99.90
15638;DHT22;26604;53.596;10.042;2022-12-19T03:06:22;19.30;99.90
15638;DHT22;26604;53.596;10.042;2022-12-19T03:08:57;19.20;99.90
15638;DHT22;26604;53.596;10.042;2022-12-19T03:11:28;19.20;99.90
15638;DHT22;26604;53.596;10.042;2022-12-19T03:13:59;19.20;99.90
15638;DHT22;26604;53.596;10.042;2022-12-19T03:16:28;19.20;99.90
15638;DHT22;26604;53.596;10.042;2022-12-19T03:18:57;19.10;99.90
15638;DHT22;26604;53.596;10.042;2022-12-19T03:21:28;19.10;99.90
15638;DHT22;26604;53.596;10.042;2022-12-19T03:23:58;19.10;99.90
15638;DHT22;26604;53.596;10.042;2022-12-19T03:26:28;19.10;99.90
15638;DHT22;26604;53.596;10.042;2022-12-19T03:29:00;19.10;99.90
15638;DHT22;26604;53.596;10.042;2022-12-19T03:31:29;19.10;99.90
15638;DHT22;26604;53.596;10.042;2022-12-19T03:34:00;19.10;99.90
15638;DHT22;26604;53.596;10.042;2022-12-19T03:36:30;19.00;99.90
15638;DHT22;26604;53.596;10.042;2022-12-19T03:39:00;19.00;99.90
15638;DHT22;26604;53.596;10.042;2022-12-19T03:41:29;19.00;99.90
15638;DHT22;26604;53.596;10.042;2022-12-19T03:44:25;19.00;99.90
15638;DHT22;26604;53.596;10.042;2022-12-19T03:46:58;19.00;99.90
15638;DHT22;26604;53.596;10.042;2022-12-19T03:49:28;19.00;99.90
15638;DHT22;26604;53.596;10.042;2022-12-19T03:52:04;19.00;99.90
15638;DHT22;26604;53.596;10.042;2022-12-19T03:54:38;19.00;99.90
15638;DHT22;26604;53.596;10.042;2022-12-19T03:57:08;19.00;99.90
15638;DHT22;26604;53.596;10.042;2022-12-19T03:59:39;18.90;99.90
15638;DHT22;26604;53.596;10.042;2022-12-19T04:02:09;19.00;99.90
15638;DHT22;26604;53.596;10.042;2022-12-19T04:04:51;18.90;99.90
15638;DHT22;26604;53.596;10.042;2022-12-19T04:07:20;18.90;99.90
15638;DHT22;26604;53.596;10.042;2022-12-19T04:09:48;18.90;99.90
15638;DHT22;26604;53.596;10.042;2022-12-19T04:12:18;18.90;99.90
15638;DHT22;26604;53.596;10.042;2022-12-19T04:14:47;18.90;99.90
15638;DHT22;26604;53.596;10.042;2022-12-19T04:17:23;18.90;99.90
15638;DHT22;26604;53.596;10.042;2022-12-19T04:19:57;18.90;99.90
15638;DHT22;26604;53.596;10.042;2022-12-19T04:22:30;18.90;99.90
15638;DHT22;26604;53.596;10.042;2022-12-19T04:24:59;18.90;99.90
15638;DHT22;26604;53.596;10.042;2022-12-19T04:27:26;18.90;99.90
15638;DHT22;26604;53.596;10.042;2022-12-19T04:29:55;18.90;99.90
15638;DHT22;26604;53.596;10.042;2022-12-19T04:32:24;18.90;99.90
15638;DHT22;26604;53.596;10.042;2022-12-19T04:34:52;18.90;99.90
15638;DHT22;26604;53.596;10.042;2022-12-19T04:37:19;18.90;99.90
15638;DHT22;26604;53.596;10.042;2022-12-19T04:39:46;18.90;99.90
15638;DHT22;26604;53.596;10.042;2022-12-19T04:42:13;18.80;99.90
15638;DHT22;26604;53.596;10.042;2022-12-19T04:44:40;18.80;99.90
15638;DHT22;26604;53.596;10.042;2022-12-19T04:47:07;18.80;99.90
15638;DHT22;26604;53.596;10.042;2022-12-19T04:49:33;18.80;99.90
15638;DHT22;26604;53.596;10.042;2022-12-19T04:52:02;18.80;99.90
15638;DHT22;26604;53.596;10.042;2022-12-19T04:54:28;18.80;99.90
15638;DHT22;26604;53.596;10.042;2022-12-19T04:56:55;18.80;99.90
15638;DHT22;26604;53.596;10.042;2022-12-19T04:59:22;18.80;99.90
15638;DHT22;26604;53.596;10.042;2022-12-19T05:01:49;18.80;99.90
15638;DHT22;26604;53.596;10.042;2022-12-19T05:04:16;18.90;99.90
15638;DHT22;26604;53.596;10.042;2022-12-19T05:06:43;19.00;99.90
15638;DHT22;26604;53.596;10.042;2022-12-19T05:09:11;19.20;99.90
15638;DHT22;26604;53.596;10.042;2022-12-19T05:11:38;19.40;99.90
15638;DHT22;26604;53.596;10.042;2022-12-19T05:14:05;19.60;99.90
15638;DHT22;26604;53.596;10.042;2022-12-19T05:16:32;19.70;99.90
15638;DHT22;26604;53.596;10.042;2022-12-19T05:18:59;19.80;99.90
15638;DHT22;26604;53.596;10.042;2022-12-19T05:21:26;19.90;99.90
15638;DHT22;26604;53.596;10.042;2022-12-19T05:23:53;20.00;99.90
15638;DHT22;26604;53.596;10.042;2022-12-19T05:26:22;20.00;99.90
15638;DHT22;26604;53.596;10.042;2022-12-19T05:28:49;20.00;99.90
15638;DHT22;26604;53.596;10.042;2022-12-19T05:31:17;20.00;99.80
15638;DHT22;26604;53.596;10.042;2022-12-19T05:33:45;20.00;99.80
15638;DHT22;26604;53.596;10.042;2022-12-19T05:36:14;20.00;99.80
15638;DHT22;26604;53.596;10.042;2022-12-19T05:38:41;20.00;99.80
15638;DHT22;26604;53.596;10.042;2022-12-19T05:41:09;19.90;99.80
15638;DHT22;26604;53.596;10.042;2022-12-19T05:43:37;19.90;99.90
15638;DHT22;26604;53.596;10.042;2022-12-19T05:46:05;19.90;99.90
15638;DHT22;26604;53.596;10.042;2022-12-19T05:48:32;19.80;99.90
15638;DHT22;26604;53.596;10.042;2022-12-19T05:51:00;19.80;99.90
15638;DHT22;26604;53.596;10.042;2022-12-19T05:53:26;19.80;99.90
15638;DHT22;26604;53.596;10.042;2022-12-19T05:56:02;19.70;99.90
15638;DHT22;26604;53.596;10.042;2022-12-19T05:58:29;19.70;99.90
15638;DHT22;26604;53.596;10.042;2022-12-19T06:01:01;19.70;99.90
15638;DHT22;26604;53.596;10.042;2022-12-19T06:03:28;19.60;99.90
15638;DHT22;26604;53.596;10.042;2022-12-19T06:05:55;19.60;99.90
15638;DHT22;26604;53.596;10.042;2022-12-19T06:08:22;19.60;99.90
15638;DHT22;26604;53.596;10.042;2022-12-19T06:10:49;19.50;99.90
15638;DHT22;26604;53.596;10.042;2022-12-19T06:13:16;19.50;99.90
15638;DHT22;26604;53.596;10.042;2022-12-19T06:15:42;19.40;99.90
15638;DHT22;26604;53.596;10.042;2022-12-19T06:18:11;19.40;99.90
15638;DHT22;26604;53.596;10.042;2022-12-19T06:20:37;19.40;99.90
15638;DHT22;26604;53.596;10.042;2022-12-19T06:23:04;19.40;99.90
15638;DHT22;26604;53.596;10.042;2022-12-19T06:25:31;19.30;99.90
15638;DHT22;26604;53.596;10.042;2022-12-19T06:27:58;19.30;99.90
15638;DHT22;26604;53.596;10.042;2022-12-19T06:30:25;19.30;99.90
15638;DHT22;26604;53.596;10.042;2022-12-19T06:32:52;19.30;99.90
15638;DHT22;26604;53.596;10.042;2022-12-19T06:35:21;19.20;99.90
15638;DHT22;26604;53.596;10.042;2022-12-19T06:37:48;19.20;99.90
15638;DHT22;26604;53.596;10.042;2022-12-19T06:40:15;19.20;99.90
15638;DHT22;26604;53.596;10.042;2022-12-19T06:43:02;19.20;99.90
15638;DHT22;26604;53.596;10.042;2022-12-19T06:45:29;19.10;99.90
15638;DHT22;26604;53.596;10.042;2022-12-19T06:47:56;19.10;99.90
15638;DHT22;26604;53.596;10.042;2022-12-19T06:50:24;19.10;99.90
15638;DHT22;26604;53.596;10.042;2022-12-19T06:52:51;19.10;99.90
15638;DHT22;26604;53.596;10.042;2022-12-19T06:55:18;19.10;99.90
15638;DHT22;26604;53.596;10.042;2022-12-19T06:57:45;19.10;99.90
15638;DHT22;26604;53.596;10.042;2022-12-19T07:00:12;19.00;99.90
15638;DHT22;26604;53.596;10.042;2022-12-19T07:02:42;19.00;99.90
15638;DHT22;26604;53.596;10.042;2022-12-19T07:05:10;19.00;99.90
15638;DHT22;26604;53.596;10.042;2022-12-19T07:07:39;19.00;99.90
15638;DHT22;26604;53.596;10.042;2022-12-19T07:10:07;19.00;99.90
15638;DHT22;26604;53.596;10.042;2022-12-19T07:12:35;19.00;99.90
15638;DHT22;26604;53.596;10.042;2022-12-19T07:15:02;19.00;99.90
15638;DHT22;26604;53.596;10.042;2022-12-19T07:17:29;19.00;99.90
15638;DHT22;26604;53.596;10.042;2022-12-19T07:19:57;18.90;99.90
15638;DHT22;26604;53.596;10.042;2022-12-19T07:22:25;18.90;99.90
15638;DHT22;26604;53.596;10.042;2022-12-19T07:24:55;19.00;99.90
15638;DHT22;26604;53.596;10.042;2022-12-19T07:27:22;18.90;99.90
15638;DHT22;26604;53.596;10.042;2022-12-19T07:29:49;18.90;99.90
15638;DHT22;26604;53.596;10.042;2022-12-19T07:32:16;18.90;99.90
15638;DHT22;26604;53.596;10.042;2022-12-19T07:34:43;18.90;99.90
15638;DHT22;26604;53.596;10.042;2022-12-19T07:37:09;18.90;99.90
15638;DHT22;26604;53.596;10.042;2022-12-19T07:39:36;19.00;99.90
15638;DHT22;26604;53.596;10.042;2022-12-19T07:42:05;19.00;99.90
15638;DHT22;26604;53.596;10.042;2022-12-19T07:44:31;19.10;99.90
15638;DHT22;26604;53.596;10.042;2022-12-19T07:46:58;19.20;99.90
15638;DHT22;26604;53.596;10.042;2022-12-19T07:49:25;19.20;99.90
15638;DHT22;26604;53.596;10.042;2022-12-19T07:51:52;19.20;99.90
15638;DHT22;26604;53.596;10.042;2022-12-19T07:54:19;19.30;99.90
15638;DHT22;26604;53.596;10.042;2022-12-19T07:56:46;19.40;99.90
15638;DHT22;26604;53.596;10.042;2022-12-19T07:59:14;19.60;99.90
15638;DHT22;26604;53.596;10.042;2022-12-19T08:01:41;19.80;99.90
15638;DHT22;26604;53.596;10.042;2022-12-19T08:04:07;20.10;99.90
15638;DHT22;26604;53.596;10.042;2022-12-19T08:06:34;20.30;99.90
15638;DHT22;26604;53.596;10.042;2022-12-19T08:09:01;20.40;99.40
15638;DHT22;26604;53.596;10.042;2022-12-19T08:11:28;20.60;99.00
15638;DHT22;26604;53.596;10.042;2022-12-19T08:13:55;20.70;98.60
15638;DHT22;26604;53.596;10.042;2022-12-19T08:16:25;20.80;98.40
15638;DHT22;26604;53.596;10.042;2022-12-19T08:18:52;20.80;98.10
15638;DHT22;26604;53.596;10.042;2022-12-19T08:21:20;20.80;98.50
15638;DHT22;26604;53.596;10.042;2022-12-19T08:23:47;20.80;98.10
15638;DHT22;26604;53.596;10.042;2022-12-19T08:26:15;20.70;98.20
15638;DHT22;26604;53.596;10.042;2022-12-19T08:28:43;20.70;98.60
15638;DHT22;26604;53.596;10.042;2022-12-19T08:31:15;20.60;98.50
15638;DHT22;26604;53.596;10.042;2022-12-19T08:33:44;20.50;98.60
15638;DHT22;26604;53.596;10.042;2022-12-19T08:36:13;20.40;98.80
15638;DHT22;26604;53.596;10.042;2022-12-19T08:38:40;20.30;98.90
15638;DHT22;26604;53.596;10.042;2022-12-19T08:41:07;20.20;99.10
15638;DHT22;26604;53.596;10.042;2022-12-19T08:43:34;20.20;99.60
15638;DHT22;26604;53.596;10.042;2022-12-19T08:46:01;20.10;99.50
15638;DHT22;26604;53.596;10.042;2022-12-19T08:48:28;20.00;99.60
15638;DHT22;26604;53.596;10.042;2022-12-19T08:50:59;20.00;99.80
15638;DHT22;26604;53.596;10.042;2022-12-19T08:53:28;19.90;99.90
15638;DHT22;26604;53.596;10.042;2022-12-19T08:55:56;19.80;99.90
15638;DHT22;26604;53.596;10.042;2022-12-19T08:58:24;19.80;99.90
15638;DHT22;26604;53.596;10.042;2022-12-19T09:00:51;19.70;99.90
15638;DHT22;26604;53.596;10.042;2022-12-19T09:03:18;19.60;99.90
15638;DHT22;26604;53.596;10.042;2022-12-19T09:05:45;19.60;99.90
15638;DHT22;26604;53.596;10.042;2022-12-19T09:08:13;19.60;99.90
15638;DHT22;26604;53.596;10.042;2022-12-19T09:10:40;19.50;99.90
15638;DHT22;26604;53.596;10.042;2022-12-19T09:13:07;19.50;99.90
15638;DHT22;26604;53.596;10.042;2022-12-19T09:15:34;19.40;99.90
15638;DHT22;26604;53.596;10.042;2022-12-19T09:18:01;19.40;99.90
15638;DHT22;26604;53.596;10.042;2022-12-19T09:20:28;19.40;99.90
15638;DHT22;26604;53.596;10.042;2022-12-19T09:22:55;19.30;99.90
15638;DHT22;26604;53.596;10.042;2022-12-19T09:25:23;19.30;99.90
15638;DHT22;26604;53.596;10.042;2022-12-19T09:27:50;19.30;99.90
15638;DHT22;26604;53.596;10.042;2022-12-19T09:30:17;19.30;99.90
15638;DHT22;26604;53.596;10.042;2022-12-19T09:32:44;19.20;99.90
15638;DHT22;26604;53.596;10.042;2022-12-19T09:35:11;19.20;99.90
15638;DHT22;26604;53.596;10.042;2022-12-19T09:37:39;19.20;99.90
15638;DHT22;26604;53.596;10.042;2022-12-19T09:40:09;19.20;99.90
15638;DHT22;26604;53.596;10.042;2022-12-19T09:42:53;19.10;99.90
15638;DHT22;26604;53.596;10.042;2022-12-19T09:45:31;19.10;99.90
15638;DHT22;26604;53.596;10.042;2022-12-19T09:48:01;19.10;99.90
15638;DHT22;26604;53.596;10.042;2022-12-19T09:50:35;19.10;99.90
15638;DHT22;26604;53.596;10.042;2022-12-19T09:53:09;19.10;99.90
15638;DHT22;26604;53.596;10.042;2022-12-19T09:55:40;19.10;99.90
15638;DHT22;26604;53.596;10.042;2022-12-19T09:58:11;19.10;99.90
15638;DHT22;26604;53.596;10.042;2022-12-19T10:00:43;19.10;99.90
15638;DHT22;26604;53.596;10.042;2022-12-19T10:03:16;19.10;99.90
15638;DHT22;26604;53.596;10.042;2022-12-19T10:05:49;19.10;99.90
15638;DHT22;26604;53.596;10.042;2022-12-19T10:08:18;19.00;99.90
15638;DHT22;26604;53.596;10.042;2022-12-19T10:10:55;19.00;99.90
15638;DHT22;26604;53.596;10.042;2022-12-19T10:13:33;19.00;99.90
15638;DHT22;26604;53.596;10.042;2022-12-19T10:16:06;19.00;99.90
15638;DHT22;26604;53.596;10.042;2022-12-19T10:18:44;19.00;99.90
15638;DHT22;26604;53.596;10.042;2022-12-19T10:21:24;19.00;99.90
15638;DHT22;26604;53.596;10.042;2022-12-19T10:24:10;19.00;99.90
15638;DHT22;26604;53.596;10.042;2022-12-19T10:26:42;19.00;99.90
15638;DHT22;26604;53.596;10.042;2022-12-19T10:29:48;19.00;99.90
15638;DHT22;26604;53.596;10.042;2022-12-19T10:32:25;19.00;99.90
15638;DHT22;26604;53.596;10.042;2022-12-19T10:34:55;19.00;99.90
15638;DHT22;26604;53.596;10.042;2022-12-19T10:37:24;19.00;99.90
15638;DHT22;26604;53.596;10.042;2022-12-19T10:40:04;19.00;99.90
15638;DHT22;26604;53.596;10.042;2022-12-19T10:42:38;19.00;99.90
15638;DHT22;26604;53.596;10.042;2022-12-19T10:45:12;19.00;99.90
15638;DHT22;26604;53.596;10.042;2022-12-19T10:47:40;19.00;99.90
15638;DHT22;26604;53.596;10.042;2022-12-19T10:50:11;18.90;99.90
15638;DHT22;26604;53.596;10.042;2022-12-19T10:52:48;18.90;99.90
15638;DHT22;26604;53.596;10.042;2022-12-19T10:55:32;18.90;99.90
15638;DHT22;26604;53.596;10.042;2022-12-19T10:58:10;18.90;99.90
15638;DHT22;26604;53.596;10.042;2022-12-19T11:00:45;19.00;99.90
15638;DHT22;26604;53.596;10.042;2022-12-19T11:03:14;19.20;99.90
15638;DHT22;26604;53.596;10.042;2022-12-19T11:05:45;19.30;99.90
15638;DHT22;26604;53.596;10.042;2022-12-19T11:08:16;19.50;99.90
15638;DHT22;26604;53.596;10.042;2022-12-19T11:10:46;19.60;99.90
15638;DHT22;26604;53.596;10.042;2022-12-19T11:13:22;19.70;99.90
15638;DHT22;26604;53.596;10.042;2022-12-19T11:15:52;19.80;99.90
15638;DHT22;26604;53.596;10.042;2022-12-19T11:18:20;19.90;99.90
15638;DHT22;26604;53.596;10.042;2022-12-19T11:20:55;20.00;99.90
15638;DHT22;26604;53.596;10.042;2022-12-19T11:23:24;20.20;99.90
15638;DHT22;26604;53.596;10.042;2022-12-19T11:25:59;20.30;99.90
15638;DHT22;26604;53.596;10.042;2022-12-19T11:28:30;20.40;99.70
15638;DHT22;26604;53.596;10.042;2022-12-19T11:31:04;20.50;99.40
15638;DHT22;26604;53.596;10.042;2022-12-19T11:33:32;20.60;99.40
15638;DHT22;26604;53.596;10.042;2022-12-19T11:36:01;20.70;99.90
15638;DHT22;26604;53.596;10.042;2022-12-19T11:38:37;20.80;99.90
15638;DHT22;26604;53.596;10.042;2022-12-19T11:41:12;21.00;99.90
15638;DHT22;26604;53.596;10.042;2022-12-19T11:43:47;21.10;99.90
15638;DHT22;26604;53.596;10.042;2022-12-19T11:46:33;21.20;98.10
15638;DHT22;26604;53.596;10.042;2022-12-19T11:49:07;21.30;98.70
15638;DHT22;26604;53.596;10.042;2022-12-19T11:51:41;21.30;98.40
15638;DHT22;26604;53.596;10.042;2022-12-19T11:54:13;21.30;98.40
15638;DHT22;26604;53.596;10.042;2022-12-19T11:56:42;21.30;98.20
15638;DHT22;26604;53.596;10.042;2022-12-19T11:59:16;21.30;97.90
15638;DHT22;26604;53.596;10.042;2022-12-19T12:02:14;21.20;97.90
15638;DHT22;26604;53.596;10.042;2022-12-19T12:05:07;21.10;98.10
15638;DHT22;26604;53.596;10.042;2022-12-19T12:07:36;21.00;97.90
15638;DHT22;26604;53.596;10.042;2022-12-19T12:10:13;20.90;96.30
15638;DHT22;26604;53.596;10.042;2022-12-19T12:12:51;20.90;96.90
15638;DHT22;26604;53.596;10.042;2022-12-19T12:15:40;20.80;97.70
15638;DHT22;26604;53.596;10.042;2022-12-19T12:18:18;20.70;97.80
15638;DHT22;26604;53.596;10.042;2022-12-19T12:20:52;20.60;98.00
15638;DHT22;26604;53.596;10.042;2022-12-19T12:23:27;20.60;98.30
15638;DHT22;26604;53.596;10.042;2022-12-19T12:26:02;20.50;98.50
15638;DHT22;26604;53.596;10.042;2022-12-19T12:28:47;20.50;98.70
15638;DHT22;26604;53.596;10.042;2022-12-19T12:31:31;20.40;98.90
15638;DHT22;26604;53.596;10.042;2022-12-19T12:37:05;20.30;99.20
15638;DHT22;26604;53.596;10.042;2022-12-19T12:39:42;20.30;99.40
15638;DHT22;26604;53.596;10.042;2022-12-19T12:42:20;20.20;99.50
15638;DHT22;26604;53.596;10.042;2022-12-19T12:44:49;20.20;99.60
15638;DHT22;26604;53.596;10.042;2022-12-19T12:47:20;20.20;99.80
15638;DHT22;26604;53.596;10.042;2022-12-19T12:49:53;20.10;99.90
15638;DHT22;26604;53.596;10.042;2022-12-19T12:52:26;20.10;99.90
15638;DHT22;26604;53.596;10.042;2022-12-19T12:54:56;20.00;99.90
15638;DHT22;26604;53.596;10.042;2022-12-19T12:57:34;20.00;99.90
15638;DHT22;26604;53.596;10.042;2022-12-19T13:00:21;20.00;99.90
15638;DHT22;26604;53.596;10.042;2022-12-19T13:02:53;19.90;99.90
15638;DHT22;26604;53.596;10.042;2022-12-19T13:05:50;19.90;99.90
15638;DHT22;26604;53.596;10.042;2022-12-19T13:08:34;19.90;99.90
15638;DHT22;26604;53.596;10.042;2022-12-19T13:11:03;20.20;99.90
15638;DHT22;26604;53.596;10.042;2022-12-19T13:13:49;19.80;99.90
15638;DHT22;26604;53.596;10.042;2022-12-19T13:16:47;19.80;99.90
15638;DHT22;26604;53.596;10.042;2022-12-19T13:19:16;19.70;99.90
15638;DHT22;26604;53.596;10.042;2022-12-19T13:22:18;19.70;99.90
15638;DHT22;26604;53.596;10.042;2022-12-19T13:24:47;19.70;99.90
15638;DHT22;26604;53.596;10.042;2022-12-19T13:27:33;19.60;99.90
15638;DHT22;26604;53.596;10.042;2022-12-19T13:30:13;19.60;99.90
15638;DHT22;26604;53.596;10.042;2022-12-19T13:33:10;19.60;99.90
15638;DHT22;26604;53.596;10.042;2022-12-19T13:35:37;19.60;99.90
15638;DHT22;26604;53.596;10.042;2022-12-19T13:38:17;19.60;99.90
15638;DHT22;26604;53.596;10.042;2022-12-19T13:40:55;19.60;99.90
15638;DHT22;26604;53.596;10.042;2022-12-19T13:43:26;19.60;99.90
15638;DHT22;26604;53.596;10.042;2022-12-19T13:46:34;19.50;99.90
15638;DHT22;26604;53.596;10.042;2022-12-19T13:49:05;19.50;99.90
15638;DHT22;26604;53.596;10.042;2022-12-19T13:51:41;19.50;99.90
15638;DHT22;26604;53.596;10.042;2022-12-19T13:54:35;19.50;99.90
15638;DHT22;26604;53.596;10.042;2022-12-19T13:57:02;19.50;99.90
15638;DHT22;26604;53.596;10.042;2022-12-19T13:59:33;19.50;99.90
15638;DHT22;26604;53.596;10.042;2022-12-19T14:02:06;19.50;99.90
15638;DHT22;26604;53.596;10.042;2022-12-19T14:04:39;19.60;99.90
15638;DHT22;26604;53.596;10.042;2022-12-19T14:07:24;19.70;99.90
15638;DHT22;26604;53.596;10.042;2022-12-19T14:09:54;19.80;99.90
15638;DHT22;26604;53.596;10.042;2022-12-19T14:12:24;19.90;99.90
15638;DHT22;26604;53.596;10.042;2022-12-19T14:15:25;19.90;99.90
15638;DHT22;26604;53.596;10.042;2022-12-19T14:17:53;20.00;99.90
15638;DHT22;26604;53.596;10.042;2022-12-19T14:20:22;20.00;99.90
15638;DHT22;26604;53.596;10.042;2022-12-19T14:22:53;20.00;99.90
15638;DHT22;26604;53.596;10.042;2022-12-19T14:25:23;20.00;99.90
15638;DHT22;26604;53.596;10.042;2022-12-19T14:27:54;20.00;99.90
15638;DHT22;26604;53.596;10.042;2022-12-19T14:30:25;20.00;99.90
15638;DHT22;26604;53.596;10.042;2022-12-19T14:32:55;19.90;99.90
15638;DHT22;26604;53.596;10.042;2022-12-19T14:35:24;19.90;99.90
15638;DHT22;26604;53.596;10.042;2022-12-19T14:37:59;19.90;99.90
15638;DHT22;26604;53.596;10.042;2022-12-19T14:40:29;19.90;99.90
15638;DHT22;26604;53.596;10.042;2022-12-19T14:42:59;19.80;99.90
15638;DHT22;26604;53.596;10.042;2022-12-19T14:45:44;19.80;99.90
15638;DHT22;26604;53.596;10.042;2022-12-19T14:48:25;19.80;99.90
15638;DHT22;26604;53.596;10.042;2022-12-19T14:51:02;19.70;99.90
15638;DHT22;26604;53.596;10.042;2022-12-19T14:53:30;19.70;99.90
15638;DHT22;26604;53.596;10.042;2022-12-19T14:56:03;19.60;99.90
15638;DHT22;26604;53.596;10.042;2022-12-19T14:58:32;19.60;99.90
15638;DHT22;26604;53.596;10.042;2022-12-19T15:01:01;19.60;99.90
15638;DHT22;26604;53.596;10.042;2022-12-19T15:03:31;19.60;99.90
15638;DHT22;26604;53.596;10.042;2022-12-19T15:06:06;19.50;99.90
15638;DHT22;26604;53.596;10.042;2022-12-19T15:08:34;19.50;99.90
15638;DHT22;26604;53.596;10.042;2022-12-19T15:11:04;19.50;99.90
15638;DHT22;26604;53.596;10.042;2022-12-19T15:13:52;19.50;99.90
15638;DHT22;26604;53.596;10.042;2022-12-19T15:16:25;19.40;99.90
15638;DHT22;26604;53.596;10.042;2022-12-19T15:18:55;19.40;99.90
15638;DHT22;26604;53.596;10.042;2022-12-19T15:21:22;19.40;99.90
15638;DHT22;26604;53.596;10.042;2022-12-19T15:23:49;19.40;99.90
15638;DHT22;26604;53.596;10.042;2022-12-19T15:26:19;19.40;99.90
15638;DHT22;26604;53.596;10.042;2022-12-19T15:28:52;19.40;99.90
15638;DHT22;26604;53.596;10.042;2022-12-19T15:31:27;19.40;99.90
15638;DHT22;26604;53.596;10.042;2022-12-19T15:33:54;19.40;99.90
15638;DHT22;26604;53.596;10.042;2022-12-19T15:36:21;19.40;99.90
15638;DHT22;26604;53.596;10.042;2022-12-19T15:38:48;19.40;99.90
15638;DHT22;26604;53.596;10.042;2022-12-19T15:41:18;19.30;99.90
15638;DHT22;26604;53.596;10.042;2022-12-19T15:43:46;19.30;99.90
15638;DHT22;26604;53.596;10.042;2022-12-19T15:46:13;19.30;99.90
15638;DHT22;26604;53.596;10.042;2022-12-19T15:48:44;19.30;99.90
15638;DHT22;26604;53.596;10.042;2022-12-19T15:51:11;19.30;99.90